sensor_id;sensor_type;location;lat;lon;timestamp;pressure;altitude;pressure_sealevel;temperature;humidity
60371;BME280;48550;40.588;49.684;2022-07-29T00:00:41;101479.28;;;23.56;100.00
60371;BME280;48550;40.588;49.684;2022-07-29T00:03:11;101477.38;;;23.56;100.00
60371;BME280;48550;40.588;49.684;2022-07-29T00:05:39;101469.16;;;23.56;100.00
60371;BME280;48550;40.588;49.684;2022-07-29T00:08:05;101467.94;;;23.62;100.00
60371;BME280;48550;40.588;49.684;2022-07-29T00:10:31;101472.31;;;23.63;100.00
60371;BME280;48550;40.588;49.684;2022-07-29T00:12:57;101467.44;;;23.60;100.00
60371;BME280;48550;40.588;49.684;2022-07-29T00:15:22;101472.91;;;23.60;100.00
60371;BME280;48550;40.588;49.684;2022-07-29T00:17:48;101465.00;;;23.59;100.00
60371;BME280;48550;40.588;49.684;2022-07-29T00:20:14;101471.50;;;23.63;100.00
60371;BME280;48550;40.588;49.684;2022-07-29T00:22:40;101464.09;;;23.63;99.82
60371;BME280;48550;40.588;49.684;2022-07-29T00:25:06;101468.16;;;23.66;99.51
60371;BME280;48550;40.588;49.684;2022-07-29T00:27:33;101470.88;;;23.66;99.65
60371;BME280;48550;40.588;49.684;2022-07-29T00:29:59;101475.56;;;23.65;100.00
60371;BME280;48550;40.588;49.684;2022-07-29T00:32:25;101469.06;;;23.61;100.00
60371;BME280;48550;40.588;49.684;2022-07-29T00:34:50;101476.97;;;23.63;100.00
60371;BME280;48550;40.588;49.684;2022-07-29T00:37:35;101478.91;;;23.62;100.00
60371;BME280;48550;40.588;49.684;2022-07-29T00:40:01;101484.97;;;23.59;100.00
60371;BME280;48550;40.588;49.684;2022-07-29T00:42:27;101480.63;;;23.58;100.00
60371;BME280;48550;40.588;49.684;2022-07-29T00:44:53;101470.78;;;23.57;100.00
60371;BME280;48550;40.588;49.684;2022-07-29T00:47:18;101478.19;;;23.57;100.00
60371;BME280;48550;40.588;49.684;2022-07-29T00:49:44;101474.53;;;23.61;100.00
60371;BME280;48550;40.588;49.684;2022-07-29T00:52:11;101477.56;;;23.60;100.00
60371;BME280;48550;40.588;49.684;2022-07-29T00:54:38;101469.66;;;23.58;100.00
60371;BME280;48550;40.588;49.684;2022-07-29T00:57:06;101472.47;;;23.53;100.00
60371;BME280;48550;40.588;49.684;2022-07-29T00:59:34;101464.34;;;23.48;100.00
60371;BME280;48550;40.588;49.684;2022-07-29T01:01:59;101475.00;;;23.50;100.00
60371;BME280;48550;40.588;49.684;2022-07-29T01:04:25;101463.44;;;23.53;100.00
60371;BME280;48550;40.588;49.684;2022-07-29T01:06:53;101468.59;;;23.54;100.00
60371;BME280;48550;40.588;49.684;2022-07-29T01:09:20;101478.03;;;23.48;100.00
60371;BME280;48550;40.588;49.684;2022-07-29T01:11:47;101478.63;;;23.45;100.00
60371;BME280;48550;40.588;49.684;2022-07-29T01:14:14;101474.25;;;23.44;100.00
60371;BME280;48550;40.588;49.684;2022-07-29T01:17:26;101464.09;;;23.31;100.00
60371;BME280;48550;40.588;49.684;2022-07-29T01:20:06;101471.41;;;23.35;100.00
60371;BME280;48550;40.588;49.684;2022-07-29T01:28:57;101462.16;;;23.31;100.00
60371;BME280;48550;40.588;49.684;2022-07-29T01:30:58;101474.06;;;23.40;100.00
60371;BME280;48550;40.588;49.684;2022-07-29T01:33:27;101465.03;;;23.40;100.00
60371;BME280;48550;40.588;49.684;2022-07-29T01:36:37;101479.31;;;23.37;100.00
60371;BME280;48550;40.588;49.684;2022-07-29T01:39:21;101476.06;;;23.35;100.00
60371;BME280;48550;40.588;49.684;2022-07-29T01:42:20;101484.81;;;23.37;100.00
60371;BME280;48550;40.588;49.684;2022-07-29T01:47:28;101485.22;;;23.44;100.00
60371;BME280;48550;40.588;49.684;2022-07-29T01:49:58;101484.03;;;23.50;100.00
60371;BME280;48550;40.588;49.684;2022-07-29T01:52:36;101486.16;;;23.53;100.00
60371;BME280;48550;40.588;49.684;2022-07-29T01:55:07;101489.94;;;23.57;100.00
60371;BME280;48550;40.588;49.684;2022-07-29T01:57:36;101488.03;;;23.58;100.00
60371;BME280;48550;40.588;49.684;2022-07-29T02:00:04;101484.16;;;23.59;100.00
60371;BME280;48550;40.588;49.684;2022-07-29T02:02:32;101497.47;;;23.65;100.00
60371;BME280;48550;40.588;49.684;2022-07-29T02:05:00;101503.69;;;23.71;100.00
60371;BME280;48550;40.588;49.684;2022-07-29T02:07:29;101493.44;;;23.76;100.00
60371;BME280;48550;40.588;49.684;2022-07-29T02:09:56;101497.75;;;23.83;100.00
60371;BME280;48550;40.588;49.684;2022-07-29T02:12:24;101497.66;;;23.88;100.00
60371;BME280;48550;40.588;49.684;2022-07-29T02:14:52;101500.50;;;23.96;100.00
60371;BME280;48550;40.588;49.684;2022-07-29T02:17:26;101502.22;;;24.06;100.00
60371;BME280;48550;40.588;49.684;2022-07-29T02:19:59;101498.25;;;24.12;100.00
60371;BME280;48550;40.588;49.684;2022-07-29T02:22:28;101514.81;;;24.21;100.00
60371;BME280;48550;40.588;49.684;2022-07-29T02:24:55;101504.06;;;24.24;100.00
60371;BME280;48550;40.588;49.684;2022-07-29T02:27:23;101498.78;;;24.28;100.00
60371;BME280;48550;40.588;49.684;2022-07-29T02:29:51;101496.16;;;24.36;100.00
60371;BME280;48550;40.588;49.684;2022-07-29T02:32:19;101494.00;;;24.47;100.00
60371;BME280;48550;40.588;49.684;2022-07-29T02:34:47;101503.16;;;24.92;100.00
60371;BME280;48550;40.588;49.684;2022-07-29T02:37:15;101504.72;;;25.96;95.17
60371;BME280;48550;40.588;49.684;2022-07-29T02:39:44;101504.81;;;26.14;92.56
60371;BME280;48550;40.588;49.684;2022-07-29T02:42:13;101506.31;;;25.36;97.75
60371;BME280;48550;40.588;49.684;2022-07-29T02:44:40;101508.75;;;25.01;100.00
60371;BME280;48550;40.588;49.684;2022-07-29T02:50:15;101506.56;;;24.76;100.00
60371;BME280;48550;40.588;49.684;2022-07-29T02:52:55;101510.81;;;24.82;100.00
60371;BME280;48550;40.588;49.684;2022-07-29T02:55:26;101504.94;;;24.75;100.00
60371;BME280;48550;40.588;49.684;2022-07-29T02:58:03;101508.78;;;24.87;99.63
60371;BME280;48550;40.588;49.684;2022-07-29T03:00:37;101512.19;;;25.07;98.21
60371;BME280;48550;40.588;49.684;2022-07-29T03:03:11;101510.84;;;25.18;98.50
60371;BME280;48550;40.588;49.684;2022-07-29T03:05:38;101515.66;;;25.34;97.67
60371;BME280;48550;40.588;49.684;2022-07-29T03:08:06;101517.47;;;25.39;97.48
60371;BME280;48550;40.588;49.684;2022-07-29T03:10:34;101515.75;;;26.36;92.03
60371;BME280;48550;40.588;49.684;2022-07-29T03:13:00;101526.84;;;28.30;81.62
60371;BME280;48550;40.588;49.684;2022-07-29T03:15:27;101518.94;;;28.49;77.13
60371;BME280;48550;40.588;49.684;2022-07-29T03:17:53;101527.66;;;28.80;75.22
60371;BME280;48550;40.588;49.684;2022-07-29T03:20:20;101534.13;;;28.64;74.21
60371;BME280;48550;40.588;49.684;2022-07-29T03:22:47;101535.28;;;28.33;77.87
60371;BME280;48550;40.588;49.684;2022-07-29T03:25:14;101525.81;;;27.96;80.08
60371;BME280;48550;40.588;49.684;2022-07-29T03:27:40;101528.84;;;27.31;82.60
60371;BME280;48550;40.588;49.684;2022-07-29T03:30:07;101537.19;;;26.65;87.87
60371;BME280;48550;40.588;49.684;2022-07-29T03:32:34;101540.03;;;27.17;84.29
60371;BME280;48550;40.588;49.684;2022-07-29T03:35:00;101531.78;;;27.17;85.05
60371;BME280;48550;40.588;49.684;2022-07-29T03:37:26;101548.13;;;27.39;84.28
60371;BME280;48550;40.588;49.684;2022-07-29T03:39:53;101540.34;;;28.14;80.54
60371;BME280;48550;40.588;49.684;2022-07-29T03:42:24;101551.53;;;27.71;82.32
60371;BME280;48550;40.588;49.684;2022-07-29T03:44:53;101549.59;;;27.28;85.97
60371;BME280;48550;40.588;49.684;2022-07-29T03:47:23;101553.16;;;27.46;86.58
60371;BME280;48550;40.588;49.684;2022-07-29T03:49:52;101549.31;;;28.02;82.86
60371;BME280;48550;40.588;49.684;2022-07-29T03:52:20;101557.72;;;28.82;77.55
60371;BME280;48550;40.588;49.684;2022-07-29T03:54:47;101555.66;;;30.32;69.11
60371;BME280;48550;40.588;49.684;2022-07-29T03:57:14;101558.09;;;29.43;74.64
60371;BME280;48550;40.588;49.684;2022-07-29T03:59:42;101563.56;;;28.13;79.28
60371;BME280;48550;40.588;49.684;2022-07-29T04:02:10;101563.09;;;29.08;73.69
60371;BME280;48550;40.588;49.684;2022-07-29T04:04:37;101564.16;;;31.68;67.50
60371;BME280;48550;40.588;49.684;2022-07-29T04:07:03;101574.97;;;32.80;57.36
60371;BME280;48550;40.588;49.684;2022-07-29T04:09:29;101569.84;;;31.72;59.61
60371;BME280;48550;40.588;49.684;2022-07-29T04:11:55;101571.06;;;32.02;58.66
60371;BME280;48550;40.588;49.684;2022-07-29T04:14:21;101571.56;;;32.55;56.15
60371;BME280;48550;40.588;49.684;2022-07-29T04:16:47;101571.19;;;33.07;56.22
60371;BME280;48550;40.588;49.684;2022-07-29T04:19:13;101580.75;;;33.45;53.91
60371;BME280;48550;40.588;49.684;2022-07-29T04:21:39;101571.56;;;34.29;50.87
60371;BME280;48550;40.588;49.684;2022-07-29T04:24:05;101578.84;;;32.44;55.78
60371;BME280;48550;40.588;49.684;2022-07-29T04:26:31;101573.53;;;34.28;50.47
60371;BME280;48550;40.588;49.684;2022-07-29T04:28:57;101583.78;;;34.73;48.88
60371;BME280;48550;40.588;49.684;2022-07-29T04:31:23;101578.34;;;34.54;48.14
60371;BME280;48550;40.588;49.684;2022-07-29T04:33:48;101590.50;;;33.00;52.35
60371;BME280;48550;40.588;49.684;2022-07-29T04:36:14;101586.75;;;33.47;52.18
60371;BME280;48550;40.588;49.684;2022-07-29T04:38:40;101586.44;;;33.33;52.56
60371;BME280;48550;40.588;49.684;2022-07-29T04:41:06;101574.09;;;32.13;55.76
60371;BME280;48550;40.588;49.684;2022-07-29T04:43:36;101571.84;;;31.31;59.34
60371;BME280;48550;40.588;49.684;2022-07-29T04:46:03;101573.06;;;31.89;58.50
60371;BME280;48550;40.588;49.684;2022-07-29T04:48:29;101573.03;;;32.33;58.41
60371;BME280;48550;40.588;49.684;2022-07-29T04:50:55;101573.31;;;32.95;53.93
60371;BME280;48550;40.588;49.684;2022-07-29T04:53:21;101569.66;;;32.91;54.16
60371;BME280;48550;40.588;49.684;2022-07-29T04:55:47;101577.66;;;33.50;52.87
60371;BME280;48550;40.588;49.684;2022-07-29T04:58:13;101567.41;;;34.19;50.93
60371;BME280;48550;40.588;49.684;2022-07-29T05:00:39;101564.50;;;34.61;48.82
60371;BME280;48550;40.588;49.684;2022-07-29T05:03:05;101567.69;;;33.68;52.46
60371;BME280;48550;40.588;49.684;2022-07-29T05:05:31;101572.34;;;34.29;49.31
60371;BME280;48550;40.588;49.684;2022-07-29T05:07:56;101562.59;;;33.74;54.70
60371;BME280;48550;40.588;49.684;2022-07-29T05:10:22;101571.50;;;35.34;47.11
60371;BME280;48550;40.588;49.684;2022-07-29T05:12:48;101581.66;;;35.20;46.85
60371;BME280;48550;40.588;49.684;2022-07-29T05:15:14;101580.72;;;35.72;44.44
60371;BME280;48550;40.588;49.684;2022-07-29T05:17:40;101583.00;;;34.73;46.81
60371;BME280;48550;40.588;49.684;2022-07-29T05:20:06;101583.75;;;34.21;48.16
60371;BME280;48550;40.588;49.684;2022-07-29T05:22:32;101575.28;;;33.13;51.96
60371;BME280;48550;40.588;49.684;2022-07-29T05:24:58;101582.06;;;33.51;50.88
60371;BME280;48550;40.588;49.684;2022-07-29T05:27:24;101574.19;;;32.99;52.04
60371;BME280;48550;40.588;49.684;2022-07-29T05:29:49;101560.34;;;31.88;56.79
60371;BME280;48550;40.588;49.684;2022-07-29T05:32:15;101570.16;;;33.15;54.25
60371;BME280;48550;40.588;49.684;2022-07-29T05:34:41;101579.34;;;32.65;54.73
60371;BME280;48550;40.588;49.684;2022-07-29T05:37:07;101570.81;;;33.09;53.48
60371;BME280;48550;40.588;49.684;2022-07-29T05:39:33;101572.13;;;32.96;54.65
60371;BME280;48550;40.588;49.684;2022-07-29T05:41:59;101568.88;;;31.96;57.55
60371;BME280;48550;40.588;49.684;2022-07-29T05:44:24;101572.22;;;32.33;55.72
60371;BME280;48550;40.588;49.684;2022-07-29T05:46:50;101570.69;;;32.04;58.43
60371;BME280;48550;40.588;49.684;2022-07-29T05:49:16;101576.16;;;32.47;56.00
60371;BME280;48550;40.588;49.684;2022-07-29T05:51:41;101569.00;;;31.99;57.71
60371;BME280;48550;40.588;49.684;2022-07-29T05:54:07;101582.72;;;31.80;59.89
60371;BME280;48550;40.588;49.684;2022-07-29T05:56:33;101574.19;;;31.29;59.45
60371;BME280;48550;40.588;49.684;2022-07-29T05:58:59;101573.81;;;32.49;55.20
60371;BME280;48550;40.588;49.684;2022-07-29T06:01:24;101586.63;;;32.07;55.87
60371;BME280;48550;40.588;49.684;2022-07-29T06:03:50;101580.94;;;32.66;55.88
60371;BME280;48550;40.588;49.684;2022-07-29T06:06:16;101581.78;;;34.21;51.20
60371;BME280;48550;40.588;49.684;2022-07-29T06:08:41;101582.44;;;32.13;56.71
60371;BME280;48550;40.588;49.684;2022-07-29T06:11:07;101584.53;;;32.67;55.47
60371;BME280;48550;40.588;49.684;2022-07-29T06:13:34;101591.97;;;32.94;53.87
60371;BME280;48550;40.588;49.684;2022-07-29T06:16:00;101597.38;;;33.06;53.49
60371;BME280;48550;40.588;49.684;2022-07-29T06:18:25;101596.94;;;32.85;54.05
60371;BME280;48550;40.588;49.684;2022-07-29T06:20:51;101603.31;;;31.79;56.93
60371;BME280;48550;40.588;49.684;2022-07-29T06:23:18;101593.59;;;33.14;52.48
60371;BME280;48550;40.588;49.684;2022-07-29T06:25:44;101601.22;;;33.17;51.85
60371;BME280;48550;40.588;49.684;2022-07-29T06:28:10;101593.03;;;31.23;59.27
60371;BME280;48550;40.588;49.684;2022-07-29T06:30:36;101588.28;;;31.52;57.53
60371;BME280;48550;40.588;49.684;2022-07-29T06:33:02;101590.03;;;32.16;55.80
60371;BME280;48550;40.588;49.684;2022-07-29T06:35:29;101585.53;;;33.29;52.87
60371;BME280;48550;40.588;49.684;2022-07-29T06:37:55;101597.31;;;32.36;54.40
60371;BME280;48550;40.588;49.684;2022-07-29T06:40:20;101593.56;;;33.30;52.30
60371;BME280;48550;40.588;49.684;2022-07-29T06:43:05;101583.63;;;32.28;53.52
60371;BME280;48550;40.588;49.684;2022-07-29T06:45:33;101584.13;;;32.02;55.22
60371;BME280;48550;40.588;49.684;2022-07-29T06:47:59;101586.47;;;31.72;56.31
60371;BME280;48550;40.588;49.684;2022-07-29T06:50:25;101579.31;;;30.90;60.17
60371;BME280;48550;40.588;49.684;2022-07-29T06:52:51;101590.75;;;32.13;55.53
60371;BME280;48550;40.588;49.684;2022-07-29T06:55:17;101588.25;;;32.39;55.75
60371;BME280;48550;40.588;49.684;2022-07-29T06:57:45;101581.19;;;32.42;53.85
60371;BME280;48550;40.588;49.684;2022-07-29T07:00:12;101587.28;;;31.44;59.46
60371;BME280;48550;40.588;49.684;2022-07-29T07:02:39;101590.63;;;31.50;58.46
60371;BME280;48550;40.588;49.684;2022-07-29T07:05:05;101591.72;;;32.83;53.14
60371;BME280;48550;40.588;49.684;2022-07-29T07:07:31;101600.88;;;32.84;53.12
60371;BME280;48550;40.588;49.684;2022-07-29T07:09:57;101589.84;;;33.07;52.07
60371;BME280;48550;40.588;49.684;2022-07-29T07:12:23;101589.09;;;32.24;55.15
60371;BME280;48550;40.588;49.684;2022-07-29T07:14:48;101589.13;;;31.00;59.57
60371;BME280;48550;40.588;49.684;2022-07-29T07:17:14;101592.63;;;32.56;54.19
60371;BME280;48550;40.588;49.684;2022-07-29T07:19:40;101590.41;;;33.32;52.43
60371;BME280;48550;40.588;49.684;2022-07-29T07:22:06;101592.94;;;33.21;50.58
60371;BME280;48550;40.588;49.684;2022-07-29T07:24:31;101593.81;;;32.39;54.75
60371;BME280;48550;40.588;49.684;2022-07-29T07:26:57;101586.91;;;33.00;52.71
60371;BME280;48550;40.588;49.684;2022-07-29T07:29:23;101584.50;;;32.16;54.67
60371;BME280;48550;40.588;49.684;2022-07-29T07:31:49;101577.97;;;32.24;54.21
60371;BME280;48550;40.588;49.684;2022-07-29T07:34:14;101574.56;;;31.71;56.90
60371;BME280;48550;40.588;49.684;2022-07-29T07:36:40;101578.41;;;32.42;55.99
60371;BME280;48550;40.588;49.684;2022-07-29T07:39:06;101581.53;;;30.85;59.15
60371;BME280;48550;40.588;49.684;2022-07-29T07:41:32;101565.13;;;30.80;59.99
60371;BME280;48550;40.588;49.684;2022-07-29T07:43:58;101575.06;;;30.56;61.36
60371;BME280;48550;40.588;49.684;2022-07-29T07:46:24;101568.25;;;30.17;63.40
60371;BME280;48550;40.588;49.684;2022-07-29T07:48:49;101573.34;;;30.52;63.11
60371;BME280;48550;40.588;49.684;2022-07-29T07:51:18;101571.91;;;31.47;58.41
60371;BME280;48550;40.588;49.684;2022-07-29T07:53:43;101571.06;;;31.06;60.40
60371;BME280;48550;40.588;49.684;2022-07-29T07:56:10;101567.94;;;29.53;67.94
60371;BME280;48550;40.588;49.684;2022-07-29T07:58:36;101582.44;;;28.78;73.18
60371;BME280;48550;40.588;49.684;2022-07-29T08:01:02;101570.16;;;28.67;73.25
60371;BME280;48550;40.588;49.684;2022-07-29T08:03:27;101575.03;;;28.41;74.99
60371;BME280;48550;40.588;49.684;2022-07-29T08:05:53;101574.44;;;28.27;76.73
60371;BME280;48550;40.588;49.684;2022-07-29T08:08:19;101590.75;;;27.94;78.06
60371;BME280;48550;40.588;49.684;2022-07-29T08:10:46;101566.13;;;27.28;82.67
60371;BME280;48550;40.588;49.684;2022-07-29T08:13:21;101568.25;;;27.31;85.72
60371;BME280;48550;40.588;49.684;2022-07-29T08:15:48;101566.94;;;27.46;85.16
60371;BME280;48550;40.588;49.684;2022-07-29T08:18:25;101561.56;;;27.49;85.12
60371;BME280;48550;40.588;49.684;2022-07-29T08:20:51;101571.00;;;27.31;84.41
60371;BME280;48550;40.588;49.684;2022-07-29T08:23:17;101574.38;;;27.45;84.69
60371;BME280;48550;40.588;49.684;2022-07-29T08:25:44;101567.75;;;27.03;87.70
60371;BME280;48550;40.588;49.684;2022-07-29T08:28:10;101562.25;;;27.03;88.43
60371;BME280;48550;40.588;49.684;2022-07-29T08:30:36;101557.84;;;26.94;87.57
60371;BME280;48550;40.588;49.684;2022-07-29T08:33:01;101564.03;;;27.08;89.38
60371;BME280;48550;40.588;49.684;2022-07-29T08:35:28;101564.50;;;27.01;87.32
60371;BME280;48550;40.588;49.684;2022-07-29T08:37:53;101551.50;;;26.93;89.25
60371;BME280;48550;40.588;49.684;2022-07-29T08:40:20;101567.41;;;26.96;88.19
60371;BME280;48550;40.588;49.684;2022-07-29T08:42:46;101544.75;;;26.42;90.36
60371;BME280;48550;40.588;49.684;2022-07-29T08:45:12;101556.59;;;26.51;93.15
60371;BME280;48550;40.588;49.684;2022-07-29T08:47:38;101561.22;;;26.90;88.27
60371;BME280;48550;40.588;49.684;2022-07-29T08:50:08;101565.88;;;26.73;89.08
60371;BME280;48550;40.588;49.684;2022-07-29T08:52:39;101561.28;;;27.08;87.47
60371;BME280;48550;40.588;49.684;2022-07-29T08:55:06;101564.50;;;27.36;85.34
60371;BME280;48550;40.588;49.684;2022-07-29T08:57:33;101560.41;;;26.81;86.58
60371;BME280;48550;40.588;49.684;2022-07-29T09:00:01;101554.69;;;26.69;87.56
60371;BME280;48550;40.588;49.684;2022-07-29T09:02:35;101563.22;;;27.16;85.40
60371;BME280;48550;40.588;49.684;2022-07-29T09:05:02;101559.16;;;27.13;86.13
60371;BME280;48550;40.588;49.684;2022-07-29T09:07:29;101556.84;;;26.89;89.07
60371;BME280;48550;40.588;49.684;2022-07-29T09:09:55;101556.53;;;26.82;87.66
60371;BME280;48550;40.588;49.684;2022-07-29T09:12:22;101560.72;;;26.80;85.31
60371;BME280;48550;40.588;49.684;2022-07-29T09:14:50;101555.81;;;26.59;87.77
60371;BME280;48550;40.588;49.684;2022-07-29T09:17:16;101555.94;;;26.46;88.76
60371;BME280;48550;40.588;49.684;2022-07-29T09:19:43;101554.59;;;26.35;91.05
60371;BME280;48550;40.588;49.684;2022-07-29T09:22:09;101546.25;;;26.57;89.30
60371;BME280;48550;40.588;49.684;2022-07-29T09:24:39;101556.81;;;26.72;89.01
60371;BME280;48550;40.588;49.684;2022-07-29T09:27:11;101551.16;;;26.77;88.04
60371;BME280;48550;40.588;49.684;2022-07-29T09:29:43;101554.47;;;26.48;88.84
60371;BME280;48550;40.588;49.684;2022-07-29T09:32:10;101554.06;;;26.72;87.62
60371;BME280;48550;40.588;49.684;2022-07-29T09:34:36;101548.91;;;26.31;90.89
60371;BME280;48550;40.588;49.684;2022-07-29T09:37:02;101548.41;;;26.29;89.70
60371;BME280;48550;40.588;49.684;2022-07-29T09:39:30;101557.59;;;26.16;90.06
60371;BME280;48550;40.588;49.684;2022-07-29T09:42:00;101555.28;;;26.49;90.01
60371;BME280;48550;40.588;49.684;2022-07-29T09:44:26;101533.78;;;26.11;88.38
60371;BME280;48550;40.588;49.684;2022-07-29T09:47:03;101548.69;;;26.58;89.10
60371;BME280;48550;40.588;49.684;2022-07-29T09:49:34;101556.16;;;26.67;89.14
60371;BME280;48550;40.588;49.684;2022-07-29T09:52:06;101551.84;;;26.35;90.06
60371;BME280;48550;40.588;49.684;2022-07-29T09:54:33;101541.41;;;26.23;93.27
60371;BME280;48550;40.588;49.684;2022-07-29T09:57:06;101547.06;;;26.18;94.13
60371;BME280;48550;40.588;49.684;2022-07-29T09:59:34;101556.13;;;26.18;93.29
60371;BME280;48550;40.588;49.684;2022-07-29T10:02:00;101548.72;;;25.96;90.43
60371;BME280;48550;40.588;49.684;2022-07-29T10:04:39;101548.50;;;26.15;92.25
60371;BME280;48550;40.588;49.684;2022-07-29T10:07:05;101533.41;;;26.35;92.11
60371;BME280;48550;40.588;49.684;2022-07-29T10:09:32;101533.88;;;26.37;93.02
60371;BME280;48550;40.588;49.684;2022-07-29T10:12:12;101543.28;;;26.36;93.13
60371;BME280;48550;40.588;49.684;2022-07-29T10:14:42;101539.59;;;26.49;91.55
60371;BME280;48550;40.588;49.684;2022-07-29T10:17:09;101540.09;;;26.60;89.85
60371;BME280;48550;40.588;49.684;2022-07-29T10:19:36;101542.50;;;26.53;88.68
60371;BME280;48550;40.588;49.684;2022-07-29T10:22:08;101546.53;;;26.47;88.20
60371;BME280;48550;40.588;49.684;2022-07-29T10:24:35;101535.53;;;26.47;88.42
60371;BME280;48550;40.588;49.684;2022-07-29T10:27:02;101528.31;;;26.28;89.13
60371;BME280;48550;40.588;49.684;2022-07-29T10:29:28;101521.03;;;26.24;90.31
60371;BME280;48550;40.588;49.684;2022-07-29T10:40:26;101514.19;;;25.82;92.09
60371;BME280;48550;40.588;49.684;2022-07-29T10:43:20;101510.69;;;25.90;94.30
60371;BME280;48550;40.588;49.684;2022-07-29T10:45:49;101524.06;;;25.83;96.08
60371;BME280;48550;40.588;49.684;2022-07-29T10:48:21;101515.00;;;25.82;93.79
60371;BME280;48550;40.588;49.684;2022-07-29T10:51:00;101513.69;;;25.80;93.50
60371;BME280;48550;40.588;49.684;2022-07-29T10:53:52;101520.78;;;26.03;91.91
60371;BME280;48550;40.588;49.684;2022-07-29T10:56:29;101515.78;;;26.05;90.66
60371;BME280;48550;40.588;49.684;2022-07-29T11:01:47;101529.16;;;25.98;91.48
60371;BME280;48550;40.588;49.684;2022-07-29T11:04:13;101522.59;;;26.08;90.98
60371;BME280;48550;40.588;49.684;2022-07-29T11:09:27;101515.00;;;25.82;92.37
60371;BME280;48550;40.588;49.684;2022-07-29T11:11:56;101509.34;;;26.10;90.57
60371;BME280;48550;40.588;49.684;2022-07-29T11:14:58;101507.72;;;26.09;88.45
60371;BME280;48550;40.588;49.684;2022-07-29T11:17:26;101514.28;;;25.99;85.27
60371;BME280;48550;40.588;49.684;2022-07-29T11:22:57;101512.97;;;25.96;89.88
60371;BME280;48550;40.588;49.684;2022-07-29T11:25:23;101512.78;;;25.93;87.49
60371;BME280;48550;40.588;49.684;2022-07-29T11:27:49;101513.09;;;25.91;86.41
60371;BME280;48550;40.588;49.684;2022-07-29T11:30:17;101503.81;;;25.79;83.86
60371;BME280;48550;40.588;49.684;2022-07-29T11:32:44;101507.75;;;25.86;84.81
60371;BME280;48550;40.588;49.684;2022-07-29T11:35:23;101509.97;;;26.07;85.79
60371;BME280;48550;40.588;49.684;2022-07-29T11:41:25;101490.47;;;25.94;81.90
60371;BME280;48550;40.588;49.684;2022-07-29T11:43:55;101490.97;;;25.96;83.41
60371;BME280;48550;40.588;49.684;2022-07-29T11:49:08;101490.56;;;25.81;84.19
60371;BME280;48550;40.588;49.684;2022-07-29T11:51:38;101493.47;;;25.76;85.80
60371;BME280;48550;40.588;49.684;2022-07-29T11:54:05;101491.91;;;25.92;88.20
60371;BME280;48550;40.588;49.684;2022-07-29T11:56:34;101494.16;;;25.90;84.98
60371;BME280;48550;40.588;49.684;2022-07-29T11:59:05;101495.72;;;26.05;83.96
60371;BME280;48550;40.588;49.684;2022-07-29T12:01:32;101488.13;;;25.79;85.08
60371;BME280;48550;40.588;49.684;2022-07-29T12:04:05;101492.34;;;25.77;83.67
60371;BME280;48550;40.588;49.684;2022-07-29T12:06:33;101487.91;;;25.67;83.96
60371;BME280;48550;40.588;49.684;2022-07-29T12:08:59;101491.84;;;25.75;85.10
60371;BME280;48550;40.588;49.684;2022-07-29T12:11:25;101482.97;;;25.55;86.71
60371;BME280;48550;40.588;49.684;2022-07-29T12:13:52;101479.84;;;25.71;86.59
60371;BME280;48550;40.588;49.684;2022-07-29T12:16:21;101474.41;;;25.79;88.23
60371;BME280;48550;40.588;49.684;2022-07-29T12:18:57;101488.91;;;25.71;87.71
60371;BME280;48550;40.588;49.684;2022-07-29T12:21:23;101489.53;;;25.68;87.82
60371;BME280;48550;40.588;49.684;2022-07-29T12:23:53;101479.84;;;25.71;88.47
60371;BME280;48550;40.588;49.684;2022-07-29T12:26:20;101475.31;;;25.66;86.29
60371;BME280;48550;40.588;49.684;2022-07-29T12:28:45;101471.75;;;25.65;88.82
60371;BME280;48550;40.588;49.684;2022-07-29T12:31:13;101473.25;;;25.49;89.03
60371;BME280;48550;40.588;49.684;2022-07-29T12:33:39;101473.59;;;25.56;91.27
60371;BME280;48550;40.588;49.684;2022-07-29T12:36:05;101472.16;;;25.59;92.75
60371;BME280;48550;40.588;49.684;2022-07-29T12:38:31;101462.59;;;25.56;92.21
60371;BME280;48550;40.588;49.684;2022-07-29T12:40:59;101462.25;;;25.49;93.75
60371;BME280;48550;40.588;49.684;2022-07-29T12:43:25;101462.13;;;25.54;91.52
60371;BME280;48550;40.588;49.684;2022-07-29T12:45:53;101465.72;;;25.63;92.59
60371;BME280;48550;40.588;49.684;2022-07-29T12:48:40;101461.34;;;25.62;92.62
60371;BME280;48550;40.588;49.684;2022-07-29T12:51:08;101465.22;;;25.61;93.95
60371;BME280;48550;40.588;49.684;2022-07-29T12:53:35;101463.06;;;25.50;93.42
60371;BME280;48550;40.588;49.684;2022-07-29T12:56:02;101449.63;;;25.48;93.07
60371;BME280;48550;40.588;49.684;2022-07-29T12:58:39;101460.00;;;25.51;95.37
60371;BME280;48550;40.588;49.684;2022-07-29T13:01:13;101445.41;;;25.42;96.02
60371;BME280;48550;40.588;49.684;2022-07-29T13:06:35;101445.25;;;25.47;96.82
60371;BME280;48550;40.588;49.684;2022-07-29T13:09:14;101446.88;;;25.48;99.61
60371;BME280;48550;40.588;49.684;2022-07-29T13:14:08;101443.09;;;25.36;97.44
60371;BME280;48550;40.588;49.684;2022-07-29T13:16:36;101442.78;;;25.37;97.07
60371;BME280;48550;40.588;49.684;2022-07-29T13:19:04;101446.97;;;25.34;97.64
60371;BME280;48550;40.588;49.684;2022-07-29T13:21:30;101445.84;;;25.36;97.15
60371;BME280;48550;40.588;49.684;2022-07-29T13:23:56;101453.47;;;25.39;98.35